CST,Max TemperatureF,Mean TemperatureF,Min TemperatureF,Max Dew PointF,MeanDew PointF,Min DewpointF,Max Humidity, Mean Humidity, Min Humidity, Max Sea Level PressureIn, Mean Sea Level PressureIn, Min Sea Level PressureIn, Max VisibilityMiles, Mean VisibilityMiles, Min VisibilityMiles, Max Wind SpeedMPH, Mean Wind SpeedMPH, Max Gust SpeedMPH,PrecipitationIn, CloudCover, Events, WindDirDegrees
2012-12-1,36,31,25,32,29,22,100,91,82,29.91,29.76,29.66,10,4,2,22,10,28,0.00,8,,330
2012-12-2,42,34,25,36,30,22,100,88,76,29.93,29.72,29.37,10,4,0,20,10,25,0.00,8,Fog,153
2012-12-3,44,31,17,37,27,9,92,78,63,29.94,29.58,29.32,10,10,6,32,17,47,0.09,5,Rain,272
2012-12-4,20,16,11,11,8,5,88,75,61,30.42,30.28,29.99,10,10,10,22,10,29,0.00,2,,339
2012-12-5,35,25,14,25,17,10,88,71,53,30.36,29.96,29.62,10,10,10,25,16,32,0.00,7,,166
2012-12-6,39,29,18,29,20,14,84,71,58,30.04,29.87,29.62,10,10,10,29,13,36,0.00,5,,297
2012-12-7,19,13,6,13,6,2,84,76,67,30.16,30.12,30.04,10,10,10,10,6,14,0.00,3,,357
2012-12-8,21,15,8,18,12,4,88,79,70,30.20,30.01,29.93,10,5,2,21,11,25,0.10,8,Snow,40
2012-12-9,8,-1,-11,3,-7,-16,87,79,71,30.43,30.31,30.14,10,6,2,25,15,30,T,5,Snow,345
2012-12-10,15,1,-13,7,-1,-16,88,78,67,30.20,29.88,29.70,10,9,2,22,10,26,T,4,Snow,177
2012-12-11,9,4,-2,3,-3,-8,86,77,68,29.98,29.88,29.74,10,9,2,17,9,21,T,6,Snow,7
2012-12-12,18,12,5,11,4,-1,83,75,66,30.05,29.88,29.74,10,9,3,17,11,20,T,8,Snow,21
2012-12-13,19,12,4,16,6,-1,86,80,73,30.20,30.10,30.00,10,8,1,17,8,21,0.01,7,Snow,134
2012-12-14,28,19,9,22,14,7,100,88,75,30.07,29.91,29.73,10,6,0,15,8,17,T,4,Fog,167
2012-12-15,23,16,9,18,11,7,92,83,73,29.79,29.73,29.67,10,6,0,28,9,35,T,6,Fog-Snow,334
2012-12-16,23,20,17,20,17,13,92,85,77,29.88,29.83,29.75,10,10,6,20,10,25,T,8,Snow,348
2012-12-17,19,18,16,15,14,12,92,86,80,29.86,29.75,29.63,10,8,1,10,6,13,0.01,8,Snow,171
2012-12-18,26,22,18,25,21,16,100,92,84,29.72,29.67,29.62,10,5,1,8,5,13,0.06,8,Snow,137
2012-12-19,27,22,16,24,17,11,100,87,73,30.12,29.85,29.67,10,8,1,20,9,23,T,8,Snow,275
2012-12-20,16,8,0,11,3,-3,87,82,76,30.28,30.20,30.11,10,8,5,14,8,16,T,6,Snow,327
2012-12-21,9,7,4,4,2,0,88,84,80,30.32,30.24,30.10,10,8,2,15,8,16,T,5,Snow,179
2012-12-22,14,8,2,8,4,-3,95,84,73,30.30,30.17,30.06,10,6,1,25,14,31,T,6,Snow,345
2012-12-23,3,0,-4,-3,-6,-8,87,81,75,30.31,30.26,30.18,10,8,2,20,12,22,T,7,Snow,360
2012-12-24,-1,-6,-11,-9,-11,-16,83,77,71,30.48,30.34,30.19,10,9,6,18,10,22,0.00,4,,343
2012-12-25,0,-5,-11,-8,-13,-17,79,72,64,30.58,30.53,30.47,10,10,10,13,6,15,0.00,2,,267
2012-12-26,9,4,-1,3,0,-7,87,80,72,30.45,30.36,30.24,10,8,3,8,4,9,0.02,7,Snow,133
2012-12-27,15,12,8,9,6,3,92,83,73,30.31,30.24,30.12,10,8,2,9,4,10,0.01,8,Snow,133
2012-12-28,15,8,0,9,6,-2,96,88,80,30.17,30.09,29.98,10,7,2,9,6,12,0.01,7,Snow,191
2012-12-29,12,2,-8,2,-3,-12,91,81,71,30.14,30.07,29.98,10,8,2,16,7,20,T,5,Snow,257
2012-12-30,24,12,0,19,7,-4,87,77,67,30.19,30.01,29.84,10,8,2,25,13,30,T,6,Snow,298
2012-12-31,3,-4,-11,-5,-10,-17,87,78,68,30.34,30.29,30.20,10,10,10,10,5,12,0.00,0,,253